sensor_id;sensor_type;location;lat;lon;timestamp;pressure;altitude;pressure_sealevel;temperature;humidity
72950;BME280;64868;45.710;9.590;2023-02-28T00:00:41;99420.78;;;4.19;58.39
72950;BME280;64868;45.710;9.590;2023-02-28T00:03:09;99417.06;;;4.21;59.50
72950;BME280;64868;45.710;9.590;2023-02-28T00:05:39;99421.59;;;4.21;59.02
72950;BME280;64868;45.710;9.590;2023-02-28T00:08:09;99416.25;;;4.19;59.56
72950;BME280;64868;45.710;9.590;2023-02-28T00:10:41;99418.16;;;4.17;59.57
72950;BME280;64868;45.710;9.590;2023-02-28T00:13:14;99424.47;;;4.16;59.42
72950;BME280;64868;45.710;9.590;2023-02-28T00:15:50;99425.28;;;4.18;59.26
72950;BME280;64868;45.710;9.590;2023-02-28T00:18:30;99429.53;;;4.24;59.39
72950;BME280;64868;45.710;9.590;2023-02-28T00:21:02;99415.13;;;4.25;59.62
72950;BME280;64868;45.710;9.590;2023-02-28T00:23:35;99427.88;;;4.21;58.74
72950;BME280;64868;45.710;9.590;2023-02-28T00:26:08;99435.59;;;4.30;59.64
72950;BME280;64868;45.710;9.590;2023-02-28T00:28:40;99433.72;;;4.32;59.34
72950;BME280;64868;45.710;9.590;2023-02-28T00:31:13;99434.63;;;4.31;60.29
72950;BME280;64868;45.710;9.590;2023-02-28T00:33:43;99428.03;;;4.38;60.97
72950;BME280;64868;45.710;9.590;2023-02-28T00:36:12;99433.50;;;4.37;58.74
72950;BME280;64868;45.710;9.590;2023-02-28T00:38:45;99433.44;;;4.38;58.10
72950;BME280;64868;45.710;9.590;2023-02-28T00:41:18;99427.28;;;4.35;58.30
72950;BME280;64868;45.710;9.590;2023-02-28T00:43:50;99433.44;;;4.38;58.22
72950;BME280;64868;45.710;9.590;2023-02-28T00:46:23;99436.09;;;4.40;58.13
72950;BME280;64868;45.710;9.590;2023-02-28T00:48:53;99444.94;;;4.44;58.13
72950;BME280;64868;45.710;9.590;2023-02-28T00:51:26;99432.38;;;4.43;57.40
72950;BME280;64868;45.710;9.590;2023-02-28T00:53:58;99445.00;;;4.42;56.94
72950;BME280;64868;45.710;9.590;2023-02-28T00:56:28;99441.72;;;4.34;57.06
72950;BME280;64868;45.710;9.590;2023-02-28T00:58:59;99445.06;;;4.41;56.92
72950;BME280;64868;45.710;9.590;2023-02-28T01:01:31;99446.75;;;4.43;57.93
72950;BME280;64868;45.710;9.590;2023-02-28T01:04:00;99445.75;;;4.46;58.12
72950;BME280;64868;45.710;9.590;2023-02-28T01:06:33;99451.28;;;4.43;58.55
72950;BME280;64868;45.710;9.590;2023-02-28T01:09:03;99445.31;;;4.34;58.37
72950;BME280;64868;45.710;9.590;2023-02-28T01:11:36;99449.13;;;4.07;58.08
72950;BME280;64868;45.710;9.590;2023-02-28T01:14:02;99452.44;;;3.92;59.06
72950;BME280;64868;45.710;9.590;2023-02-28T01:16:31;99448.78;;;3.93;57.67
72950;BME280;64868;45.710;9.590;2023-02-28T01:19:04;99455.94;;;3.94;58.83
72950;BME280;64868;45.710;9.590;2023-02-28T01:21:34;99453.50;;;3.87;57.99
72950;BME280;64868;45.710;9.590;2023-02-28T01:24:04;99456.88;;;3.69;59.73
72950;BME280;64868;45.710;9.590;2023-02-28T01:26:34;99460.38;;;3.71;59.62
72950;BME280;64868;45.710;9.590;2023-02-28T01:29:04;99457.00;;;3.66;60.36
72950;BME280;64868;45.710;9.590;2023-02-28T01:31:37;99453.31;;;3.69;61.84
72950;BME280;64868;45.710;9.590;2023-02-28T01:34:05;99453.66;;;3.59;61.19
72950;BME280;64868;45.710;9.590;2023-02-28T01:36:37;99453.59;;;3.61;62.59
72950;BME280;64868;45.710;9.590;2023-02-28T01:39:10;99452.56;;;3.65;62.16
72950;BME280;64868;45.710;9.590;2023-02-28T01:41:47;99449.31;;;3.55;63.55
72950;BME280;64868;45.710;9.590;2023-02-28T01:47:20;99456.78;;;3.49;64.32
72950;BME280;64868;45.710;9.590;2023-02-28T01:49:54;99447.16;;;3.41;64.85
72950;BME280;64868;45.710;9.590;2023-02-28T01:52:25;99444.31;;;3.45;65.35
72950;BME280;64868;45.710;9.590;2023-02-28T01:54:58;99439.94;;;3.42;65.99
72950;BME280;64868;45.710;9.590;2023-02-28T01:57:44;99447.97;;;3.44;65.14
72950;BME280;64868;45.710;9.590;2023-02-28T02:00:18;99442.81;;;3.37;65.60
72950;BME280;64868;45.710;9.590;2023-02-28T02:02:51;99440.25;;;3.33;65.94
72950;BME280;64868;45.710;9.590;2023-02-28T02:05:32;99445.06;;;3.25;65.71
72950;BME280;64868;45.710;9.590;2023-02-28T02:08:11;99444.28;;;3.21;66.06
72950;BME280;64868;45.710;9.590;2023-02-28T02:15:57;99442.19;;;3.29;65.95
72950;BME280;64868;45.710;9.590;2023-02-28T02:18:45;99436.75;;;3.31;66.24
72950;BME280;64868;45.710;9.590;2023-02-28T02:24:26;99442.53;;;3.20;67.91
72950;BME280;64868;45.710;9.590;2023-02-28T02:32:44;99438.19;;;3.16;67.37
72950;BME280;64868;45.710;9.590;2023-02-28T02:35:31;99445.44;;;3.14;68.87
72950;BME280;64868;45.710;9.590;2023-02-28T02:38:12;99441.69;;;3.18;68.98
72950;BME280;64868;45.710;9.590;2023-02-28T02:43:46;99439.75;;;3.23;69.16
72950;BME280;64868;45.710;9.590;2023-02-28T02:46:22;99442.75;;;3.14;70.46
72950;BME280;64868;45.710;9.590;2023-02-28T02:48:55;99442.72;;;3.15;68.89
72950;BME280;64868;45.710;9.590;2023-02-28T02:51:25;99444.28;;;3.21;69.38
72950;BME280;64868;45.710;9.590;2023-02-28T02:54:02;99438.09;;;3.19;70.56
72950;BME280;64868;45.710;9.590;2023-02-28T02:56:36;99449.84;;;3.16;69.97
72950;BME280;64868;45.710;9.590;2023-02-28T02:59:11;99449.78;;;3.18;70.83
72950;BME280;64868;45.710;9.590;2023-02-28T03:01:41;99442.75;;;3.14;70.52
72950;BME280;64868;45.710;9.590;2023-02-28T03:04:17;99443.66;;;3.14;71.11
72950;BME280;64868;45.710;9.590;2023-02-28T03:06:43;99442.31;;;3.26;70.36
72950;BME280;64868;45.710;9.590;2023-02-28T03:09:13;99441.69;;;3.18;71.13
72950;BME280;64868;45.710;9.590;2023-02-28T03:11:46;99440.97;;;3.14;71.79
72950;BME280;64868;45.710;9.590;2023-02-28T03:14:22;99442.72;;;3.15;71.02
72950;BME280;64868;45.710;9.590;2023-02-28T03:17:24;99446.50;;;3.10;72.94
72950;BME280;64868;45.710;9.590;2023-02-28T03:28:33;99440.28;;;3.08;71.56
72950;BME280;64868;45.710;9.590;2023-02-28T03:31:11;99438.41;;;3.10;72.41
72950;BME280;64868;45.710;9.590;2023-02-28T03:33:49;99451.97;;;3.07;72.81
72950;BME280;64868;45.710;9.590;2023-02-28T03:36:24;99450.97;;;3.11;71.88
72950;BME280;64868;45.710;9.590;2023-02-28T03:39:02;99449.06;;;3.13;72.01
72950;BME280;64868;45.710;9.590;2023-02-28T03:41:44;99440.19;;;3.11;72.86
72950;BME280;64868;45.710;9.590;2023-02-28T03:44:21;99439.25;;;3.12;72.14
72950;BME280;64868;45.710;9.590;2023-02-28T03:47:04;99446.56;;;3.08;72.78
72950;BME280;64868;45.710;9.590;2023-02-28T03:49:50;99435.81;;;3.07;72.30
72950;BME280;64868;45.710;9.590;2023-02-28T03:52:25;99447.53;;;3.06;72.74
72950;BME280;64868;45.710;9.590;2023-02-28T03:55:02;99440.50;;;3.02;73.04
72950;BME280;64868;45.710;9.590;2023-02-28T03:57:56;99444.81;;;3.07;73.50
72950;BME280;64868;45.710;9.590;2023-02-28T04:00:42;99452.88;;;3.07;72.42
72950;BME280;64868;45.710;9.590;2023-02-28T04:03:14;99450.56;;;2.97;73.41
72950;BME280;64868;45.710;9.590;2023-02-28T04:06:02;99449.84;;;2.91;73.70
72950;BME280;64868;45.710;9.590;2023-02-28T04:08:34;99454.03;;;3.00;74.94
72950;BME280;64868;45.710;9.590;2023-02-28T04:11:08;99461.25;;;3.00;74.71
72950;BME280;64868;45.710;9.590;2023-02-28T04:13:50;99448.84;;;2.94;74.49
72950;BME280;64868;45.710;9.590;2023-02-28T04:16:22;99467.25;;;3.06;72.92
72950;BME280;64868;45.710;9.590;2023-02-28T04:18:55;99462.81;;;3.05;73.74
72950;BME280;64868;45.710;9.590;2023-02-28T04:21:31;99460.41;;;2.98;74.85
72950;BME280;64868;45.710;9.590;2023-02-28T04:24:02;99461.09;;;3.03;75.73
72950;BME280;64868;45.710;9.590;2023-02-28T04:26:32;99468.97;;;3.09;74.22
72950;BME280;64868;45.710;9.590;2023-02-28T04:29:05;99468.22;;;3.05;73.97
72950;BME280;64868;45.710;9.590;2023-02-28T04:31:38;99465.88;;;2.95;74.51
72950;BME280;64868;45.710;9.590;2023-02-28T04:34:11;99475.47;;;3.03;73.27
72950;BME280;64868;45.710;9.590;2023-02-28T04:36:43;99475.41;;;3.05;73.60
72950;BME280;64868;45.710;9.590;2023-02-28T04:39:14;99474.44;;;3.07;73.16
72950;BME280;64868;45.710;9.590;2023-02-28T04:41:44;99468.41;;;2.99;72.52
72950;BME280;64868;45.710;9.590;2023-02-28T04:44:17;99477.16;;;3.06;74.31
72950;BME280;64868;45.710;9.590;2023-02-28T04:46:50;99472.13;;;2.97;72.85
72950;BME280;64868;45.710;9.590;2023-02-28T04:49:22;99470.56;;;2.89;74.32
72950;BME280;64868;45.710;9.590;2023-02-28T04:51:55;99471.28;;;2.95;73.29
72950;BME280;64868;45.710;9.590;2023-02-28T04:54:28;99464.13;;;2.93;73.57
72950;BME280;64868;45.710;9.590;2023-02-28T04:57:00;99471.94;;;3.01;72.88
72950;BME280;64868;45.710;9.590;2023-02-28T04:59:33;99464.97;;;2.96;72.55
72950;BME280;64868;45.710;9.590;2023-02-28T05:02:05;99468.16;;;2.80;72.61
72950;BME280;64868;45.710;9.590;2023-02-28T05:04:38;99461.25;;;2.73;72.48
72950;BME280;64868;45.710;9.590;2023-02-28T05:07:11;99478.03;;;2.81;73.85
72950;BME280;64868;45.710;9.590;2023-02-28T05:09:39;99484.91;;;2.90;73.56
72950;BME280;64868;45.710;9.590;2023-02-28T05:12:08;99475.09;;;2.87;71.99
72950;BME280;64868;45.710;9.590;2023-02-28T05:14:41;99480.75;;;2.80;72.22
72950;BME280;64868;45.710;9.590;2023-02-28T05:17:14;99481.78;;;2.76;74.06
72950;BME280;64868;45.710;9.590;2023-02-28T05:19:46;99485.75;;;2.65;72.70
72950;BME280;64868;45.710;9.590;2023-02-28T05:22:19;99486.72;;;2.63;72.91
72950;BME280;64868;45.710;9.590;2023-02-28T05:24:52;99477.16;;;2.54;72.57
72950;BME280;64868;45.710;9.590;2023-02-28T05:27:22;99486.25;;;2.50;73.83
72950;BME280;64868;45.710;9.590;2023-02-28T05:29:52;99488.97;;;2.49;74.85
72950;BME280;64868;45.710;9.590;2023-02-28T05:32:24;99488.69;;;2.58;74.84
72950;BME280;64868;45.710;9.590;2023-02-28T05:34:52;99488.69;;;2.58;72.76
72950;BME280;64868;45.710;9.590;2023-02-28T05:37:25;99495.94;;;2.56;73.39
72950;BME280;64868;45.710;9.590;2023-02-28T05:39:57;99491.50;;;2.53;73.76
72950;BME280;64868;45.710;9.590;2023-02-28T05:42:30;99482.88;;;2.43;74.41
72950;BME280;64868;45.710;9.590;2023-02-28T05:45:02;99488.97;;;2.49;75.34
72950;BME280;64868;45.710;9.590;2023-02-28T05:47:33;99489.84;;;2.49;74.38
72950;BME280;64868;45.710;9.590;2023-02-28T05:50:06;99494.63;;;2.41;74.46
72950;BME280;64868;45.710;9.590;2023-02-28T05:52:39;99486.53;;;2.41;75.79
72950;BME280;64868;45.710;9.590;2023-02-28T05:55:10;99490.59;;;2.26;75.78
72950;BME280;64868;45.710;9.590;2023-02-28T05:57:40;99489.31;;;2.38;75.03
72950;BME280;64868;45.710;9.590;2023-02-28T06:00:15;99488.00;;;2.51;74.71
72950;BME280;64868;45.710;9.590;2023-02-28T06:02:43;99488.47;;;2.64;74.61
72950;BME280;64868;45.710;9.590;2023-02-28T06:05:19;99484.91;;;2.63;73.68
72950;BME280;64868;45.710;9.590;2023-02-28T06:07:52;99484.97;;;2.62;73.76
72950;BME280;64868;45.710;9.590;2023-02-28T06:10:17;99488.56;;;2.61;74.01
72950;BME280;64868;45.710;9.590;2023-02-28T06:12:48;99478.72;;;2.61;74.09
72950;BME280;64868;45.710;9.590;2023-02-28T06:15:18;99483.09;;;2.64;74.26
72950;BME280;64868;45.710;9.590;2023-02-28T06:17:50;99487.59;;;2.63;73.29
72950;BME280;64868;45.710;9.590;2023-02-28T06:20:23;99484.19;;;2.58;74.18
72950;BME280;64868;45.710;9.590;2023-02-28T06:22:56;99485.00;;;2.60;75.34
72950;BME280;64868;45.710;9.590;2023-02-28T06:25:28;99479.78;;;2.56;74.80
72950;BME280;64868;45.710;9.590;2023-02-28T06:28:01;99484.97;;;2.62;75.97
72950;BME280;64868;45.710;9.590;2023-02-28T06:30:31;99486.63;;;2.66;75.58
72950;BME280;64868;45.710;9.590;2023-02-28T06:33:01;99500.72;;;2.74;75.25
72950;BME280;64868;45.710;9.590;2023-02-28T06:35:29;99509.50;;;2.79;75.74
72950;BME280;64868;45.710;9.590;2023-02-28T06:37:59;99503.13;;;2.82;75.22
72950;BME280;64868;45.710;9.590;2023-02-28T06:40:31;99492.53;;;2.77;75.58
72950;BME280;64868;45.710;9.590;2023-02-28T06:43:04;99505.25;;;2.99;75.79
72950;BME280;64868;45.710;9.590;2023-02-28T06:45:34;99507.63;;;3.08;75.05
72950;BME280;64868;45.710;9.590;2023-02-28T06:48:06;99505.91;;;3.05;74.19
72950;BME280;64868;45.710;9.590;2023-02-28T06:50:39;99511.88;;;3.15;73.86
72950;BME280;64868;45.710;9.590;2023-02-28T06:53:12;99513.28;;;3.25;74.34
72950;BME280;64868;45.710;9.590;2023-02-28T06:55:39;99510.59;;;3.25;74.66
72950;BME280;64868;45.710;9.590;2023-02-28T06:58:12;99518.97;;;3.42;74.55
72950;BME280;64868;45.710;9.590;2023-02-28T07:00:44;99521.00;;;3.61;73.13
72950;BME280;64868;45.710;9.590;2023-02-28T07:03:14;99519.22;;;3.85;72.79
72950;BME280;64868;45.710;9.590;2023-02-28T07:05:45;99516.50;;;3.85;71.89
72950;BME280;64868;45.710;9.590;2023-02-28T07:08:11;99518.28;;;4.09;72.10
72950;BME280;64868;45.710;9.590;2023-02-28T07:10:41;99514.06;;;4.24;71.37
72950;BME280;64868;45.710;9.590;2023-02-28T07:13:13;99518.94;;;4.38;70.48
72950;BME280;64868;45.710;9.590;2023-02-28T07:15:52;99512.94;;;4.53;69.95
72950;BME280;64868;45.710;9.590;2023-02-28T07:18:24;99523.31;;;4.64;68.56
72950;BME280;64868;45.710;9.590;2023-02-28T07:20:55;99532.78;;;4.74;69.54
72950;BME280;64868;45.710;9.590;2023-02-28T07:23:25;99540.94;;;4.95;67.99
72950;BME280;64868;45.710;9.590;2023-02-28T07:25:57;99528.41;;;5.14;67.40
72950;BME280;64868;45.710;9.590;2023-02-28T07:28:30;99525.16;;;5.26;67.58
72950;BME280;64868;45.710;9.590;2023-02-28T07:31:02;99533.66;;;5.39;66.93
72950;BME280;64868;45.710;9.590;2023-02-28T07:33:34;99523.00;;;5.75;66.29
72950;BME280;64868;45.710;9.590;2023-02-28T07:36:08;99529.09;;;5.80;65.37
72950;BME280;64868;45.710;9.590;2023-02-28T07:38:40;99526.09;;;5.86;65.75
72950;BME280;64868;45.710;9.590;2023-02-28T07:41:10;99525.72;;;5.96;66.24
72950;BME280;64868;45.710;9.590;2023-02-28T07:43:40;99524.19;;;6.28;64.65
72950;BME280;64868;45.710;9.590;2023-02-28T07:46:14;99533.00;;;6.52;60.74
72950;BME280;64868;45.710;9.590;2023-02-28T07:48:50;99524.56;;;6.39;59.22
72950;BME280;64868;45.710;9.590;2023-02-28T07:51:20;99527.50;;;6.34;58.16
72950;BME280;64868;45.710;9.590;2023-02-28T07:53:50;99526.91;;;6.28;59.22
72950;BME280;64868;45.710;9.590;2023-02-28T07:56:18;99528.81;;;6.64;56.81
72950;BME280;64868;45.710;9.590;2023-02-28T07:58:51;99532.34;;;7.02;56.36
72950;BME280;64868;45.710;9.590;2023-02-28T08:01:23;99533.47;;;7.32;56.37
72950;BME280;64868;45.710;9.590;2023-02-28T08:03:54;99534.81;;;7.76;57.05
72950;BME280;64868;45.710;9.590;2023-02-28T08:06:23;99534.88;;;8.25;52.87
72950;BME280;64868;45.710;9.590;2023-02-28T08:08:53;99532.84;;;8.46;51.20
72950;BME280;64868;45.710;9.590;2023-02-28T08:11:25;99536.50;;;9.08;50.13
72950;BME280;64868;45.710;9.590;2023-02-28T08:13:51;99536.00;;;10.49;46.08
72950;BME280;64868;45.710;9.590;2023-02-28T08:16:23;99548.84;;;11.44;45.33
72950;BME280;64868;45.710;9.590;2023-02-28T08:18:54;99550.84;;;13.91;40.19
72950;BME280;64868;45.710;9.590;2023-02-28T08:21:27;99545.63;;;18.10;31.85
72950;BME280;64868;45.710;9.590;2023-02-28T08:23:59;99547.66;;;16.99;30.48
72950;BME280;64868;45.710;9.590;2023-02-28T08:26:27;99550.91;;;17.14;31.31
72950;BME280;64868;45.710;9.590;2023-02-28T08:28:57;99553.75;;;18.21;28.46
72950;BME280;64868;45.710;9.590;2023-02-28T08:31:25;99561.41;;;15.53;33.86
72950;BME280;64868;45.710;9.590;2023-02-28T08:33:55;99563.25;;;12.88;38.75
72950;BME280;64868;45.710;9.590;2023-02-28T08:36:25;99563.66;;;11.67;42.28
72950;BME280;64868;45.710;9.590;2023-02-28T08:38:55;99561.72;;;10.59;44.01
72950;BME280;64868;45.710;9.590;2023-02-28T08:41:28;99565.25;;;9.58;46.06
72950;BME280;64868;45.710;9.590;2023-02-28T08:43:58;99562.38;;;9.15;48.56
72950;BME280;64868;45.710;9.590;2023-02-28T08:46:31;99552.72;;;8.94;50.05
72950;BME280;64868;45.710;9.590;2023-02-28T08:49:01;99566.28;;;8.80;50.31
72950;BME280;64868;45.710;9.590;2023-02-28T08:51:30;99553.06;;;8.07;51.03
72950;BME280;64868;45.710;9.590;2023-02-28T08:54:00;99564.28;;;8.17;53.14
72950;BME280;64868;45.710;9.590;2023-02-28T08:56:33;99562.97;;;8.08;52.33
72950;BME280;64868;45.710;9.590;2023-02-28T08:59:03;99563.56;;;8.13;54.45
72950;BME280;64868;45.710;9.590;2023-02-28T09:01:34;99558.97;;;8.15;54.06
72950;BME280;64868;45.710;9.590;2023-02-28T09:04:04;99562.09;;;8.08;54.18
72950;BME280;64868;45.710;9.590;2023-02-28T09:06:34;99557.13;;;7.65;55.71
72950;BME280;64868;45.710;9.590;2023-02-28T09:09:04;99555.16;;;7.50;55.76
72950;BME280;64868;45.710;9.590;2023-02-28T09:11:32;99560.69;;;7.66;55.29
72950;BME280;64868;45.710;9.590;2023-02-28T09:14:04;99558.44;;;8.42;54.00
72950;BME280;64868;45.710;9.590;2023-02-28T09:16:35;99559.91;;;9.57;51.25
72950;BME280;64868;45.710;9.590;2023-02-28T09:19:07;99556.84;;;16.27;36.86
72950;BME280;64868;45.710;9.590;2023-02-28T09:21:40;99557.22;;;16.95;32.81
72950;BME280;64868;45.710;9.590;2023-02-28T09:24:12;99566.75;;;15.22;35.34
72950;BME280;64868;45.710;9.590;2023-02-28T09:26:42;99558.22;;;14.71;37.34
72950;BME280;64868;45.710;9.590;2023-02-28T09:29:12;99562.13;;;13.75;38.21
72950;BME280;64868;45.710;9.590;2023-02-28T09:31:42;99576.13;;;16.58;34.54
72950;BME280;64868;45.710;9.590;2023-02-28T09:34:15;99563.41;;;24.44;20.64
72950;BME280;64868;45.710;9.590;2023-02-28T09:36:45;99575.75;;;27.19;17.62
72950;BME280;64868;45.710;9.590;2023-02-28T09:39:18;99580.38;;;28.55;16.38
72950;BME280;64868;45.710;9.590;2023-02-28T09:41:50;99584.06;;;27.05;16.93
72950;BME280;64868;45.710;9.590;2023-02-28T09:44:28;99576.25;;;25.87;17.38
72950;BME280;64868;45.710;9.590;2023-02-28T09:47:03;99580.41;;;26.34;17.51
72950;BME280;64868;45.710;9.590;2023-02-28T09:49:45;99584.19;;;26.97;16.03
72950;BME280;64868;45.710;9.590;2023-02-28T09:52:20;99586.03;;;27.39;17.29
72950;BME280;64868;45.710;9.590;2023-02-28T09:54:53;99589.09;;;26.60;17.35
72950;BME280;64868;45.710;9.590;2023-02-28T09:57:35;99590.66;;;28.08;16.75
72950;BME280;64868;45.710;9.590;2023-02-28T10:03:04;99593.78;;;25.95;17.86
72950;BME280;64868;45.710;9.590;2023-02-28T10:08:34;99581.78;;;22.00;22.90
72950;BME280;64868;45.710;9.590;2023-02-28T10:11:07;99587.47;;;20.71;22.79
72950;BME280;64868;45.710;9.590;2023-02-28T10:13:58;99592.44;;;21.54;23.01
72950;BME280;64868;45.710;9.590;2023-02-28T10:16:37;99574.63;;;19.27;25.74
72950;BME280;64868;45.710;9.590;2023-02-28T10:19:16;99577.75;;;15.22;32.17
72950;BME280;64868;45.710;9.590;2023-02-28T10:22:12;99584.31;;;13.11;37.10
72950;BME280;64868;45.710;9.590;2023-02-28T10:24:43;99580.69;;;15.42;32.68
72950;BME280;64868;45.710;9.590;2023-02-28T10:27:28;99575.19;;;13.72;33.94
72950;BME280;64868;45.710;9.590;2023-02-28T10:30:01;99563.91;;;12.79;36.22
72950;BME280;64868;45.710;9.590;2023-02-28T10:32:33;99567.44;;;11.91;38.61
72950;BME280;64868;45.710;9.590;2023-02-28T10:35:20;99579.31;;;9.81;44.66
72950;BME280;64868;45.710;9.590;2023-02-28T10:37:55;99568.94;;;9.27;45.45
72950;BME280;64868;45.710;9.590;2023-02-28T10:40:29;99577.34;;;9.68;46.86
72950;BME280;64868;45.710;9.590;2023-02-28T10:43:03;99578.22;;;9.55;46.64
72950;BME280;64868;45.710;9.590;2023-02-28T10:45:35;99571.00;;;13.55;38.29
72950;BME280;64868;45.710;9.590;2023-02-28T10:53:32;99564.53;;;16.54;30.37
72950;BME280;64868;45.710;9.590;2023-02-28T11:01:45;99563.06;;;13.02;38.70
72950;BME280;64868;45.710;9.590;2023-02-28T11:07:03;99550.03;;;14.35;35.75
72950;BME280;64868;45.710;9.590;2023-02-28T11:09:40;99547.97;;;15.82;31.70
72950;BME280;64868;45.710;9.590;2023-02-28T11:12:21;99557.72;;;17.89;28.99
72950;BME280;64868;45.710;9.590;2023-02-28T11:14:53;99548.88;;;15.39;33.08
72950;BME280;64868;45.710;9.590;2023-02-28T11:17:28;99545.03;;;11.99;38.42
72950;BME280;64868;45.710;9.590;2023-02-28T11:20:03;99551.38;;;11.60;41.32
72950;BME280;64868;45.710;9.590;2023-02-28T11:22:38;99543.72;;;13.29;38.76
72950;BME280;64868;45.710;9.590;2023-02-28T11:25:13;99538.50;;;12.89;39.84
72950;BME280;64868;45.710;9.590;2023-02-28T11:27:47;99532.31;;;12.49;39.90
72950;BME280;64868;45.710;9.590;2023-02-28T11:32:58;99529.94;;;13.31;39.23
72950;BME280;64868;45.710;9.590;2023-02-28T11:38:05;99508.63;;;11.33;41.25
72950;BME280;64868;45.710;9.590;2023-02-28T11:46:40;99505.94;;;11.19;43.27
72950;BME280;64868;45.710;9.590;2023-02-28T11:55:01;99490.97;;;11.52;40.89
72950;BME280;64868;45.710;9.590;2023-02-28T11:57:52;99491.47;;;12.09;41.56
72950;BME280;64868;45.710;9.590;2023-02-28T12:00:41;99475.63;;;14.06;36.47
72950;BME280;64868;45.710;9.590;2023-02-28T12:09:03;99462.13;;;14.82;33.43
72950;BME280;64868;45.710;9.590;2023-02-28T12:11:55;99454.41;;;15.19;31.04
72950;BME280;64868;45.710;9.590;2023-02-28T12:20:53;99450.06;;;11.90;39.08
72950;BME280;64868;45.710;9.590;2023-02-28T12:26:40;99447.03;;;10.48;44.31
72950;BME280;64868;45.710;9.590;2023-02-28T12:29:24;99443.84;;;10.41;44.41
72950;BME280;64868;45.710;9.590;2023-02-28T12:31:57;99434.09;;;10.52;43.71
72950;BME280;64868;45.710;9.590;2023-02-28T12:34:33;99440.88;;;10.86;43.32
72950;BME280;64868;45.710;9.590;2023-02-28T12:37:32;99429.28;;;11.09;43.08
72950;BME280;64868;45.710;9.590;2023-02-28T12:40:09;99433.34;;;11.16;41.69
72950;BME280;64868;45.710;9.590;2023-02-28T12:42:44;99432.88;;;11.10;41.94
72950;BME280;64868;45.710;9.590;2023-02-28T12:45:23;99422.03;;;11.61;39.75
72950;BME280;64868;45.710;9.590;2023-02-28T12:48:00;99413.53;;;11.65;39.41
72950;BME280;64868;45.710;9.590;2023-02-28T12:50:32;99418.50;;;12.35;38.59
72950;BME280;64868;45.710;9.590;2023-02-28T12:53:09;99420.75;;;13.73;36.25
72950;BME280;64868;45.710;9.590;2023-02-28T13:01:25;99422.41;;;12.44;36.65
72950;BME280;64868;45.710;9.590;2023-02-28T13:06:46;99402.69;;;11.51;41.52
72950;BME280;64868;45.710;9.590;2023-02-28T13:09:26;99401.63;;;11.54;41.29
72950;BME280;64868;45.710;9.590;2023-02-28T13:11:56;99392.84;;;11.23;40.00
72950;BME280;64868;45.710;9.590;2023-02-28T13:22:47;99386.06;;;11.29;41.22
72950;BME280;64868;45.710;9.590;2023-02-28T13:27:57;99374.81;;;11.08;42.16
72950;BME280;64868;45.710;9.590;2023-02-28T13:33:34;99383.88;;;11.21;40.66
72950;BME280;64868;45.710;9.590;2023-02-28T13:38:53;99385.53;;;11.36;41.95
72950;BME280;64868;45.710;9.590;2023-02-28T13:49:27;99380.16;;;11.09;41.18
72950;BME280;64868;45.710;9.590;2023-02-28T13:57:44;99375.59;;;11.23;42.91
72950;BME280;64868;45.710;9.590;2023-02-28T14:00:31;99371.03;;;11.23;42.39
72950;BME280;64868;45.710;9.590;2023-02-28T14:06:28;99377.03;;;10.76;42.99
72950;BME280;64868;45.710;9.590;2023-02-28T14:09:03;99369.47;;;11.06;40.83
72950;BME280;64868;45.710;9.590;2023-02-28T14:11:41;99377.81;;;11.17;41.80
72950;BME280;64868;45.710;9.590;2023-02-28T14:17:10;99358.16;;;11.25;41.52
72950;BME280;64868;45.710;9.590;2023-02-28T14:19:44;99352.69;;;11.51;42.29
72950;BME280;64868;45.710;9.590;2023-02-28T14:22:49;99344.16;;;11.55;41.26
72950;BME280;64868;45.710;9.590;2023-02-28T14:25:40;99357.25;;;11.63;40.63
72950;BME280;64868;45.710;9.590;2023-02-28T14:28:20;99353.78;;;11.61;42.29
72950;BME280;64868;45.710;9.590;2023-02-28T14:31:07;99354.31;;;11.66;40.81
72950;BME280;64868;45.710;9.590;2023-02-28T14:33:59;99349.19;;;11.23;41.92
72950;BME280;64868;45.710;9.590;2023-02-28T14:36:35;99347.13;;;11.27;41.95
72950;BME280;64868;45.710;9.590;2023-02-28T14:39:11;99340.47;;;11.18;40.63
72950;BME280;64868;45.710;9.590;2023-02-28T14:41:46;99340.00;;;11.11;40.88
72950;BME280;64868;45.710;9.590;2023-02-28T14:44:24;99346.94;;;10.90;42.18
72950;BME280;64868;45.710;9.590;2023-02-28T14:47:02;99340.50;;;10.78;42.57
72950;BME280;64868;45.710;9.590;2023-02-28T14:49:36;99342.94;;;11.21;41.12
72950;BME280;64868;45.710;9.590;2023-02-28T14:52:14;99335.31;;;11.13;42.98
72950;BME280;64868;45.710;9.590;2023-02-28T14:54:47;99331.16;;;11.08;42.03
72950;BME280;64868;45.710;9.590;2023-02-28T14:57:33;99322.97;;;11.08;42.54
72950;BME280;64868;45.710;9.590;2023-02-28T15:02:51;99317.16;;;10.87;42.96
72950;BME280;64868;45.710;9.590;2023-02-28T15:05:28;99323.31;;;10.63;43.68
72950;BME280;64868;45.710;9.590;2023-02-28T15:08:14;99310.75;;;10.48;44.70
72950;BME280;64868;45.710;9.590;2023-02-28T15:11:01;99312.88;;;10.16;45.52
72950;BME280;64868;45.710;9.590;2023-02-28T15:13:38;99308.47;;;10.55;44.49
72950;BME280;64868;45.710;9.590;2023-02-28T15:16:32;99313.94;;;11.33;41.98
72950;BME280;64868;45.710;9.590;2023-02-28T15:19:03;99314.00;;;11.69;42.05
72950;BME280;64868;45.710;9.590;2023-02-28T15:21:36;99302.53;;;12.38;40.80
72950;BME280;64868;45.710;9.590;2023-02-28T15:24:57;99317.53;;;12.08;40.79
72950;BME280;64868;45.710;9.590;2023-02-28T15:27:11;99312.47;;;11.91;40.17
72950;BME280;64868;45.710;9.590;2023-02-28T15:29:47;99299.50;;;10.80;43.49
72950;BME280;64868;45.710;9.590;2023-02-28T15:32:41;99298.66;;;10.52;43.32
72950;BME280;64868;45.710;9.590;2023-02-28T15:35:30;99298.47;;;10.14;44.72
72950;BME280;64868;45.710;9.590;2023-02-28T15:38:26;99298.47;;;10.28;44.51
72950;BME280;64868;45.710;9.590;2023-02-28T15:40:59;99293.72;;;10.17;44.09
72950;BME280;64868;45.710;9.590;2023-02-28T15:43:37;99296.28;;;10.06;44.72
72950;BME280;64868;45.710;9.590;2023-02-28T15:46:12;99298.66;;;10.52;44.42
72950;BME280;64868;45.710;9.590;2023-02-28T15:48:58;99297.75;;;11.17;42.98
72950;BME280;64868;45.710;9.590;2023-02-28T15:51:32;99292.22;;;11.44;42.55
72950;BME280;64868;45.710;9.590;2023-02-28T15:54:05;99297.50;;;11.71;40.67